createdAt,value
2022-10-13T00:00:11.236Z,14.93
2022-10-13T00:04:15.698Z,14.77
2022-10-13T00:08:20.731Z,14.62
2022-10-13T00:12:22.747Z,14.57
2022-10-13T00:16:25.196Z,14.52
2022-10-13T00:20:27.165Z,14.65
2022-10-13T00:24:29.426Z,14.65
2022-10-13T00:28:31.553Z,14.71
2022-10-13T00:32:33.784Z,14.65
2022-10-13T00:36:35.699Z,14.41
2022-10-13T00:40:51.630Z,14.35
2022-10-13T00:45:13.987Z,14.45
2022-10-13T00:49:15.930Z,14.46
2022-10-13T00:53:24.475Z,14.47
2022-10-13T00:57:27.059Z,14.28
2022-10-13T01:01:29.126Z,14.26
2022-10-13T01:05:31.559Z,14.17
2022-10-13T01:09:38.003Z,14.19
2022-10-13T01:13:51.516Z,14.23
2022-10-13T01:18:02.819Z,14.32
2022-10-13T01:22:34.045Z,14.18
2022-10-13T01:27:11.889Z,14.22
2022-10-13T01:31:32.385Z,14.27
2022-10-13T01:35:52.956Z,14.09
2022-10-13T01:40:07.096Z,14.07
2022-10-13T01:44:25.140Z,13.96
2022-10-13T01:48:29.164Z,13.90
2022-10-13T01:52:35.874Z,13.72
2022-10-13T01:56:37.817Z,13.77
2022-10-13T02:00:46.407Z,13.87
2022-10-13T02:05:15.911Z,14.02
2022-10-13T02:09:37.659Z,14.11
2022-10-13T02:13:45.477Z,14.15
2022-10-13T02:17:57.911Z,13.94
2022-10-13T02:22:02.874Z,14.03
2022-10-13T02:26:05.451Z,14.10
2022-10-13T02:30:08.444Z,13.98
2022-10-13T02:34:10.762Z,13.99
2022-10-13T02:38:13.238Z,14.01
2022-10-13T02:42:15.318Z,13.97
2022-10-13T02:46:17.452Z,14.05
2022-10-13T02:50:19.809Z,13.97
2022-10-13T02:54:25.405Z,14.06
2022-10-13T02:58:27.345Z,14.15
2022-10-13T03:02:29.449Z,14.16
2022-10-13T03:06:31.379Z,14.06
2022-10-13T03:10:33.398Z,14.10
2022-10-13T03:14:35.466Z,14.09
2022-10-13T03:18:37.943Z,14.03
2022-10-13T03:22:40.373Z,14.06
2022-10-13T03:26:42.735Z,14.02
2022-10-13T03:30:44.995Z,14.06
2022-10-13T03:34:46.985Z,14.06
2022-10-13T03:38:48.975Z,14.06
2022-10-13T03:42:50.907Z,14.09
2022-10-13T03:46:53.196Z,14.16
2022-10-13T03:50:56.069Z,14.12
2022-10-13T03:54:58.117Z,14.09
2022-10-13T03:59:01.204Z,14.02
2022-10-13T04:03:03.345Z,14.05
2022-10-13T04:07:06.985Z,14.04
2022-10-13T04:11:12.992Z,13.96
2022-10-13T04:15:15.518Z,13.91
2022-10-13T04:19:17.835Z,13.87
2022-10-13T04:23:19.781Z,13.80
2022-10-13T04:27:23.600Z,13.67
2022-10-13T04:31:27.980Z,13.72
2022-10-13T04:35:29.968Z,13.62
2022-10-13T04:39:31.988Z,13.48
2022-10-13T04:43:34.723Z,13.45
2022-10-13T04:47:38.031Z,13.38
2022-10-13T04:51:39.951Z,13.15
2022-10-13T04:55:42.162Z,13.11
2022-10-13T04:59:44.258Z,13.20
2022-10-13T05:03:46.661Z,13.25
2022-10-13T05:07:48.738Z,13.00
2022-10-13T05:11:50.790Z,13.04
2022-10-13T05:15:52.720Z,13.10
2022-10-13T05:19:56.712Z,13.09
2022-10-13T05:24:00.020Z,13.12
2022-10-13T05:28:02.882Z,13.12
2022-10-13T05:32:05.913Z,13.10
2022-10-13T05:36:10.986Z,13.16
2022-10-13T05:40:14.015Z,13.18
2022-10-13T05:44:17.539Z,13.21
2022-10-13T05:48:29.438Z,13.16
2022-10-13T05:52:33.602Z,13.19
2022-10-13T05:56:58.402Z,13.25
2022-10-13T06:01:07.128Z,13.29
2022-10-13T06:05:15.091Z,13.41
2022-10-13T06:09:18.087Z,13.50
2022-10-13T06:13:20.186Z,13.58
2022-10-13T06:17:22.158Z,13.78
2022-10-13T06:21:24.251Z,13.90
2022-10-13T06:25:26.387Z,13.97
2022-10-13T06:29:28.366Z,14.16
2022-10-13T06:33:30.378Z,14.27
2022-10-13T06:37:32.464Z,14.39
2022-10-13T06:41:34.802Z,14.55
2022-10-13T06:45:36.811Z,14.68
2022-10-13T06:49:38.836Z,14.80
2022-10-13T06:53:40.794Z,14.91
2022-10-13T06:57:43.242Z,15.04
2022-10-13T07:01:45.677Z,15.29
2022-10-13T07:05:47.866Z,15.56
2022-10-13T07:09:50.253Z,15.80
2022-10-13T07:13:54.585Z,15.91
2022-10-13T07:17:56.706Z,16.03
2022-10-13T07:21:58.867Z,16.26
2022-10-13T07:26:01.857Z,16.45
2022-10-13T07:30:06.263Z,16.61
2022-10-13T07:34:08.590Z,16.68
2022-10-13T07:38:11.704Z,16.87
2022-10-13T07:42:17.272Z,17.01
2022-10-13T07:46:19.259Z,17.12
2022-10-13T07:50:21.335Z,17.23
2022-10-13T07:54:26.525Z,17.31
2022-10-13T07:58:29.620Z,17.31
2022-10-13T08:02:31.813Z,17.32
2022-10-13T08:06:36.000Z,17.31
2022-10-13T08:10:38.427Z,17.36
2022-10-13T08:14:40.550Z,17.42
2022-10-13T08:18:43.506Z,17.36
2022-10-13T08:22:45.652Z,17.44
2022-10-13T08:26:47.621Z,17.51
2022-10-13T08:30:51.957Z,17.57
2022-10-13T08:34:54.630Z,17.71
2022-10-13T08:38:57.501Z,17.86
2022-10-13T08:43:00.493Z,18.12
2022-10-13T08:47:21.831Z,18.42
2022-10-13T08:51:23.797Z,18.67
2022-10-13T08:55:31.856Z,19.00
2022-10-13T08:59:33.850Z,19.28
2022-10-13T09:04:08.187Z,19.33
2022-10-13T09:08:19.472Z,19.45
2022-10-13T09:12:24.430Z,19.49
2022-10-13T09:16:45.680Z,19.65
2022-10-13T09:20:47.640Z,19.98
2022-10-13T09:25:08.093Z,20.13
2022-10-13T09:29:19.330Z,20.32
2022-10-13T09:33:24.161Z,20.36
2022-10-13T09:37:26.730Z,20.36
2022-10-13T09:41:28.734Z,20.24
2022-10-13T09:45:31.134Z,20.11
2022-10-13T09:49:35.867Z,20.15
2022-10-13T09:53:41.214Z,20.11
2022-10-13T09:57:48.297Z,20.15
2022-10-13T10:01:53.048Z,20.20
2022-10-13T10:06:07.839Z,20.38
2022-10-13T10:10:25.989Z,20.47
2022-10-13T10:14:29.210Z,20.42
2022-10-13T10:19:12.596Z,20.44
2022-10-13T10:23:23.030Z,20.58
2022-10-13T10:27:32.131Z,20.65
2022-10-13T10:31:57.970Z,20.73
2022-10-13T10:36:16.887Z,20.70
2022-10-13T10:40:40.052Z,20.65
2022-10-13T10:44:48.083Z,20.76
2022-10-13T10:48:55.575Z,20.90
2022-10-13T10:53:00.534Z,21.00
2022-10-13T10:57:19.938Z,21.02
2022-10-13T11:01:37.174Z,20.98
2022-10-13T11:05:57.614Z,21.17
2022-10-13T11:09:59.556Z,21.30
2022-10-13T11:14:07.743Z,21.02
2022-10-13T11:18:47.867Z,21.11
2022-10-13T11:22:59.356Z,21.29
2022-10-13T11:27:16.799Z,21.27
2022-10-13T11:31:47.464Z,21.17
2022-10-13T11:35:49.426Z,21.01
2022-10-13T11:39:59.877Z,21.08
2022-10-13T11:44:12.205Z,21.31
2022-10-13T11:48:32.982Z,21.49
2022-10-13T11:52:50.017Z,21.64
2022-10-13T11:56:54.945Z,21.71
2022-10-13T12:01:08.893Z,21.86
2022-10-13T12:05:22.604Z,22.02
2022-10-13T12:09:25.078Z,22.25
2022-10-13T12:13:32.988Z,22.59
2022-10-13T12:17:36.025Z,22.90
2022-10-13T12:21:49.657Z,23.17
2022-10-13T12:25:58.068Z,23.12
2022-10-13T12:30:01.676Z,23.03
2022-10-13T12:34:04.656Z,22.65
2022-10-13T12:38:16.014Z,22.63
2022-10-13T12:42:18.530Z,22.45
2022-10-13T12:46:42.782Z,22.09
2022-10-13T12:50:44.865Z,22.21
2022-10-13T12:54:57.908Z,21.97
2022-10-13T12:59:00.489Z,21.93
2022-10-13T13:03:04.963Z,22.02
2022-10-13T13:07:35.254Z,22.15
2022-10-13T13:11:39.063Z,22.34
2022-10-13T13:15:44.403Z,22.39
2022-10-13T13:19:51.895Z,22.41
2022-10-13T13:23:54.276Z,22.31
2022-10-13T13:27:56.312Z,22.33
2022-10-13T13:31:58.574Z,22.41
2022-10-13T13:36:00.503Z,22.20
2022-10-13T13:40:02.655Z,22.14
2022-10-13T13:44:05.209Z,22.08
2022-10-13T13:48:08.099Z,22.12
2022-10-13T13:52:10.279Z,22.22
2022-10-13T13:56:14.270Z,22.18
2022-10-13T14:00:17.744Z,22.19
2022-10-13T14:04:25.036Z,22.11
2022-10-13T14:08:30.602Z,22.07
2022-10-13T14:12:33.363Z,22.01
2022-10-13T14:16:35.358Z,21.95
2022-10-13T14:20:42.320Z,21.85
2022-10-13T14:24:44.267Z,21.81
2022-10-13T14:28:46.210Z,21.72
2022-10-13T14:32:48.163Z,21.66
2022-10-13T14:36:50.100Z,21.58
2022-10-13T14:40:53.019Z,21.51
2022-10-13T14:44:55.453Z,21.57
2022-10-13T14:48:58.995Z,21.59
2022-10-13T14:53:00.967Z,21.59
2022-10-13T14:57:05.731Z,21.51
2022-10-13T15:01:07.619Z,21.38
2022-10-13T15:05:10.195Z,21.35
2022-10-13T15:09:12.885Z,21.27
2022-10-13T15:13:14.866Z,21.16
2022-10-13T15:17:18.313Z,21.02
2022-10-13T15:21:20.666Z,20.88
2022-10-13T15:25:22.581Z,20.75
2022-10-13T15:29:24.547Z,20.63
2022-10-13T15:33:29.392Z,20.50
2022-10-13T15:37:31.647Z,20.33
2022-10-13T15:41:33.562Z,20.23
2022-10-13T15:45:35.993Z,20.09
2022-10-13T15:49:38.228Z,19.89
2022-10-13T15:53:40.189Z,19.69
2022-10-13T15:57:42.292Z,19.48
2022-10-13T16:01:44.308Z,19.30
2022-10-13T16:05:47.109Z,19.18
2022-10-13T16:09:49.182Z,19.00
2022-10-13T16:13:52.341Z,18.82
2022-10-13T16:17:54.882Z,18.66
2022-10-13T16:21:56.856Z,18.55
2022-10-13T16:25:58.796Z,18.39
2022-10-13T16:30:01.622Z,18.24
2022-10-13T16:34:04.556Z,18.15
2022-10-13T16:38:06.606Z,18.09
2022-10-13T16:42:08.616Z,18.01
2022-10-13T16:46:15.397Z,17.93
2022-10-13T16:50:17.762Z,17.89
2022-10-13T16:54:19.744Z,17.84
2022-10-13T16:58:21.726Z,17.78
2022-10-13T17:02:23.736Z,17.75
2022-10-13T17:06:28.752Z,17.80
2022-10-13T17:10:30.789Z,17.82
2022-10-13T17:14:36.066Z,17.76
2022-10-13T17:18:38.168Z,17.74
2022-10-13T17:22:40.943Z,17.58
2022-10-13T17:26:43.058Z,17.47
2022-10-13T17:30:46.594Z,17.38
2022-10-13T17:34:48.545Z,17.24
2022-10-13T17:38:51.716Z,17.00
2022-10-13T17:42:55.136Z,16.92
2022-10-13T17:46:57.286Z,16.77
2022-10-13T17:51:04.570Z,16.84
2022-10-13T17:55:06.705Z,16.78
2022-10-13T17:59:09.924Z,16.61
2022-10-13T18:03:12.209Z,16.48
2022-10-13T18:07:14.231Z,16.54
2022-10-13T18:11:17.770Z,16.62
2022-10-13T18:15:19.916Z,16.57
2022-10-13T18:19:22.617Z,16.36
2022-10-13T18:23:24.591Z,16.35
2022-10-13T18:27:26.586Z,16.15
2022-10-13T18:31:31.090Z,16.06
2022-10-13T18:35:33.438Z,15.99
2022-10-13T18:39:35.693Z,15.75
2022-10-13T18:43:38.387Z,15.70
2022-10-13T18:47:41.291Z,15.63
2022-10-13T18:51:44.465Z,15.56
2022-10-13T18:55:48.157Z,15.49
2022-10-13T18:59:50.716Z,15.25
2022-10-13T19:03:55.038Z,15.07
2022-10-13T19:07:57.226Z,15.07
2022-10-13T19:11:59.315Z,15.01
2022-10-13T19:16:02.156Z,15.07
2022-10-13T19:20:04.674Z,14.90
2022-10-13T19:24:07.884Z,14.88
2022-10-13T19:28:09.944Z,14.80
2022-10-13T19:32:11.953Z,14.76
2022-10-13T19:36:41.897Z,14.72
2022-10-13T19:40:49.796Z,14.60
2022-10-13T19:44:51.947Z,14.53
2022-10-13T19:48:54.206Z,14.52
2022-10-13T19:52:59.079Z,14.33
2022-10-13T19:57:01.824Z,14.29
2022-10-13T20:01:08.308Z,14.25
2022-10-13T20:05:10.603Z,14.25
2022-10-13T20:09:13.210Z,14.14
2022-10-13T20:13:15.161Z,14.16
2022-10-13T20:17:17.182Z,14.04
2022-10-13T20:21:19.164Z,13.99
2022-10-13T20:25:21.321Z,13.96
2022-10-13T20:29:23.576Z,13.95
2022-10-13T20:33:25.585Z,13.92
2022-10-13T20:37:28.558Z,13.74
2022-10-13T20:41:32.160Z,13.73
2022-10-13T20:45:40.973Z,13.68
2022-10-13T20:49:47.092Z,13.61
2022-10-13T20:53:50.915Z,13.39
2022-10-13T20:57:52.935Z,13.32
2022-10-13T21:01:54.933Z,13.38
2022-10-13T21:05:58.193Z,13.31
2022-10-13T21:10:01.113Z,13.13
2022-10-13T21:14:06.827Z,13.11
2022-10-13T21:18:09.744Z,12.87
2022-10-13T21:22:13.646Z,12.66
2022-10-13T21:26:21.130Z,12.62
2022-10-13T21:30:23.883Z,12.52
2022-10-13T21:34:25.860Z,12.55
2022-10-13T21:38:29.508Z,12.45
2022-10-13T21:42:33.103Z,12.49
2022-10-13T21:46:38.960Z,12.46
2022-10-13T21:50:41.727Z,12.30
2022-10-13T21:54:43.915Z,12.47
2022-10-13T21:58:46.919Z,12.44
2022-10-13T22:02:49.192Z,12.54
2022-10-13T22:06:55.632Z,12.22
2022-10-13T22:11:00.281Z,12.25
2022-10-13T22:15:02.454Z,12.34
2022-10-13T22:19:05.883Z,12.20
2022-10-13T22:23:10.769Z,11.87
2022-10-13T22:27:13.188Z,11.84
2022-10-13T22:31:16.260Z,11.53
2022-10-13T22:35:27.925Z,11.57
2022-10-13T22:39:32.727Z,11.58
2022-10-13T22:43:48.118Z,11.60
2022-10-13T22:47:54.171Z,11.64
2022-10-13T22:51:56.196Z,11.70
2022-10-13T22:55:58.931Z,11.69
2022-10-13T23:00:01.014Z,11.57
2022-10-13T23:04:03.735Z,11.39
2022-10-13T23:08:05.699Z,11.39
2022-10-13T23:12:09.484Z,11.32
2022-10-13T23:16:17.191Z,11.35
2022-10-13T23:20:19.316Z,11.31
2022-10-13T23:24:21.756Z,11.34
2022-10-13T23:28:24.152Z,11.22
2022-10-13T23:32:26.153Z,11.16
2022-10-13T23:36:31.124Z,11.27
2022-10-13T23:40:34.235Z,11.13
2022-10-13T23:44:36.362Z,11.01
2022-10-13T23:48:40.123Z,10.87
2022-10-13T23:52:42.090Z,10.90
2022-10-13T23:56:44.378Z,10.94
